createdAt,value
2019-04-14T00:00:29.280Z,20.1
2019-04-14T00:01:17.155Z,20.2
2019-04-14T00:02:05.673Z,20.3
2019-04-14T00:02:57.627Z,20.4
2019-04-14T00:03:45.603Z,20.4
2019-04-14T00:04:38.406Z,20.6
2019-04-14T00:05:33.963Z,20.6
2019-04-14T00:06:18.741Z,20.7
2019-04-14T00:07:10.652Z,20.8
2019-04-14T00:07:56.713Z,20.8
2019-04-14T00:08:48.466Z,20.9
2019-04-14T00:09:38.490Z,20.9
2019-04-14T00:10:29.489Z,20.9
2019-04-14T00:11:19.593Z,21
2019-04-14T00:12:17.001Z,21
2019-04-14T00:13:00.011Z,21
2019-04-14T00:13:50.898Z,21.1
2019-04-14T00:14:40.284Z,21.1
2019-04-14T00:19:43.966Z,21.2
2019-04-14T00:21:24.629Z,21.2
2019-04-14T00:22:14.794Z,21.2
2019-04-14T00:23:04.854Z,21.3
2019-04-14T00:23:54.912Z,21.3
2019-04-14T00:24:44.553Z,21.3
2019-04-14T00:25:35.247Z,21.3
2019-04-14T00:26:24.763Z,21.4
2019-04-14T00:27:17.049Z,21.4
2019-04-14T00:28:05.705Z,21.4
2019-04-14T00:28:55.860Z,21.5
2019-04-14T00:29:46.260Z,21.5
2019-04-14T00:30:36.759Z,21.6
2019-04-14T00:31:26.223Z,21.6
2019-04-14T00:32:14.577Z,21.6
2019-04-14T00:33:04.869Z,21.7
2019-04-14T00:33:56.274Z,21.7
2019-04-14T00:34:44.877Z,21.7
2019-04-14T00:35:34.667Z,21.8
2019-04-14T00:36:26.063Z,21.8
2019-04-14T00:37:16.244Z,21.7
2019-04-14T00:38:08.951Z,21.7
2019-04-14T00:38:56.502Z,21.7
2019-04-14T00:39:46.270Z,21.7
2019-04-14T00:40:41.729Z,21.7
2019-04-14T00:42:02.050Z,21.7
2019-04-14T00:42:25.819Z,21.7
2019-04-14T00:43:16.096Z,21.7
2019-04-14T00:44:06.356Z,21.6
2019-04-14T00:44:56.598Z,21.6
2019-04-14T00:46:13.062Z,21.6
2019-04-14T00:46:43.179Z,21.6
2019-04-14T00:47:25.149Z,21.6
2019-04-14T00:48:34.641Z,21.6
2019-04-14T00:49:06.934Z,21.6
2019-04-14T00:49:57.234Z,21.6
2019-04-14T00:50:45.703Z,21.6
2019-04-14T00:51:42.342Z,21.6
2019-04-14T00:52:25.883Z,21.6
2019-04-14T00:53:18.152Z,21.6
2019-04-14T00:54:06.803Z,21.6
2019-04-14T00:54:56.918Z,21.6
2019-04-14T00:55:47.025Z,21.6
2019-04-14T00:56:35.314Z,21.6
2019-04-14T00:57:27.328Z,21.6
2019-04-14T00:58:15.373Z,21.5
2019-04-14T00:59:07.026Z,21.5
2019-04-14T00:59:55.865Z,21.5
2019-04-14T01:00:47.807Z,21.5
2019-04-14T01:01:37.757Z,21.5
2019-04-14T01:02:25.875Z,21.5
2019-04-14T01:03:18.187Z,21.5
2019-04-14T01:04:06.061Z,21.5
2019-04-14T01:04:56.005Z,21.5
2019-04-14T01:05:48.372Z,21.5
2019-04-14T01:06:38.180Z,21.4
2019-04-14T01:07:28.258Z,21.4
2019-04-14T01:08:18.490Z,21.5
2019-04-14T01:09:06.366Z,21.5
2019-04-14T01:09:56.037Z,21.5
2019-04-14T01:10:48.142Z,21.4
2019-04-14T01:11:38.335Z,21.5
2019-04-14T01:12:29.882Z,21.4
2019-04-14T01:13:25.112Z,21.4
2019-04-14T01:14:08.469Z,21.4
2019-04-14T01:14:59.175Z,21.4
2019-04-14T01:16:36.429Z,21.4
2019-04-14T01:16:58.485Z,21.4
2019-04-14T01:17:46.569Z,21.4
2019-04-14T01:18:38.580Z,21.4
2019-04-14T01:19:27.104Z,21.5
2019-04-14T01:20:17.432Z,21.5
2019-04-14T01:21:09.379Z,21.6
2019-04-14T01:21:58.825Z,21.6
2019-04-14T01:22:47.187Z,21.6
2019-04-14T01:23:39.407Z,21.7
2019-04-14T01:24:29.196Z,21.7
2019-04-14T01:25:19.255Z,21.7
2019-04-14T01:26:09.067Z,21.8
2019-04-14T01:26:57.033Z,21.8
2019-04-14T01:27:47.314Z,21.8
2019-04-14T01:28:37.464Z,21.8
2019-04-14T01:29:27.668Z,21.8
2019-04-14T01:30:19.758Z,21.9
2019-04-14T01:31:09.731Z,21.9
2019-04-14T01:31:58.583Z,21.9
2019-04-14T01:32:49.977Z,21.8
2019-04-14T01:33:40.032Z,21.8
2019-04-14T01:34:28.656Z,21.8
2019-04-14T01:35:20.227Z,21.8
2019-04-14T01:36:10.499Z,21.8
2019-04-14T01:36:59.038Z,21.8
2019-04-14T01:37:48.828Z,21.8
2019-04-14T01:38:39.183Z,21.8
2019-04-14T01:39:28.837Z,21.8
2019-04-14T01:40:20.568Z,21.8
2019-04-14T01:41:10.584Z,21.7
2019-04-14T01:41:59.004Z,21.7
2019-04-14T01:42:51.091Z,21.7
2019-04-14T01:43:40.552Z,21.7
2019-04-14T01:44:28.996Z,21.7
2019-04-14T01:45:19.547Z,21.7
2019-04-14T01:46:46.135Z,21.7
2019-04-14T01:47:12.136Z,21.7
2019-04-14T01:48:00.074Z,21.6
2019-04-14T01:48:50.068Z,21.7
2019-04-14T01:49:39.709Z,21.7
2019-04-14T01:50:30.053Z,21.7
2019-04-14T01:51:18.730Z,21.6
2019-04-14T01:52:08.700Z,21.6
2019-04-14T01:52:59.367Z,21.6
2019-04-14T01:53:49.339Z,21.6
2019-04-14T01:54:39.297Z,21.6
2019-04-14T01:55:27.259Z,21.6
2019-04-14T01:56:19.397Z,21.6
2019-04-14T01:57:11.214Z,21.6
2019-04-14T01:58:00.743Z,21.6
2019-04-14T01:58:47.599Z,21.6
2019-04-14T01:59:39.642Z,21.6
2019-04-14T02:00:27.692Z,21.6
2019-04-14T02:01:19.407Z,21.6
2019-04-14T02:02:10.174Z,21.6
2019-04-14T02:02:57.581Z,21.6
2019-04-14T02:03:48.289Z,21.5
2019-04-14T02:04:39.810Z,21.5
2019-04-14T02:05:28.222Z,21.5
2019-04-14T02:06:18.657Z,21.5
2019-04-14T02:07:10.725Z,21.5
2019-04-14T02:08:00.622Z,21.5
2019-04-14T02:08:52.180Z,21.5
2019-04-14T02:09:42.186Z,21.5
2019-04-14T02:10:30.961Z,21.5
2019-04-14T02:11:21.137Z,21.5
2019-04-14T02:12:10.552Z,21.5
2019-04-14T02:13:01.093Z,21.5
2019-04-14T02:13:51.348Z,21.5
2019-04-14T02:14:39.414Z,21.6
2019-04-14T02:15:31.361Z,21.6
2019-04-14T02:17:15.881Z,21.6
2019-04-14T02:17:39.664Z,21.7
2019-04-14T02:18:29.550Z,21.7
2019-04-14T02:19:20.400Z,21.7
2019-04-14T02:20:10.526Z,21.8
2019-04-14T02:21:00.451Z,21.8
2019-04-14T02:21:51.898Z,21.8
2019-04-14T02:22:40.255Z,21.8
2019-04-14T02:23:32.186Z,21.9
2019-04-14T02:24:21.976Z,21.9
2019-04-14T02:25:09.873Z,21.9
2019-04-14T02:26:02.796Z,21.9
2019-04-14T02:26:52.500Z,21.9
2019-04-14T02:27:40.683Z,21.8
2019-04-14T02:28:30.918Z,21.8
2019-04-14T02:29:19.524Z,21.8
2019-04-14T02:32:56.648Z,21.8
2019-04-14T03:02:42.134Z,21.6
2019-04-14T03:16:21.517Z,21.5
2019-04-14T03:29:58.043Z,21.8
2019-04-14T03:45:25.396Z,21.6
2019-04-14T03:56:16.426Z,21.6
2019-04-14T03:56:42.594Z,21.6
2019-04-14T03:57:39.573Z,21.5
2019-04-14T03:58:27.658Z,21.4
2019-04-14T03:59:11.048Z,21.4
2019-04-14T04:00:01.681Z,21.4
2019-04-14T04:00:53.977Z,21.4
2019-04-14T04:01:41.248Z,21.3
2019-04-14T04:02:31.987Z,21.3
2019-04-14T04:03:20.303Z,21.3
2019-04-14T04:04:13.925Z,21.3
2019-04-14T04:05:02.103Z,21.3
2019-04-14T04:05:54.702Z,21.3
2019-04-14T04:06:44.158Z,21.3
2019-04-14T04:07:34.101Z,21.3
2019-04-14T04:08:24.332Z,21.3
2019-04-14T04:09:14.851Z,21.3
2019-04-14T04:10:05.089Z,21.3
2019-04-14T04:10:53.152Z,21.3
2019-04-14T04:11:45.417Z,21.4
2019-04-14T04:12:34.050Z,21.3
2019-04-14T04:13:25.815Z,21.3
2019-04-14T04:14:13.813Z,21.4
2019-04-14T04:15:06.067Z,21.4
2019-04-14T04:15:53.978Z,21.4
2019-04-14T04:16:44.641Z,21.4
2019-04-14T04:17:34.016Z,21.4
2019-04-14T04:18:24.022Z,21.4
2019-04-14T04:19:31.545Z,21.4
2019-04-14T04:20:03.119Z,21.4
2019-04-14T04:20:54.962Z,21.4
2019-04-14T04:21:44.939Z,21.4
2019-04-14T04:22:34.680Z,21.4
2019-04-14T04:23:24.763Z,21.4
2019-04-14T04:24:13.357Z,21.4
2019-04-14T04:25:05.057Z,21.4
2019-04-14T04:25:55.564Z,21.4
2019-04-14T04:26:44.842Z,21.4
2019-04-14T04:27:33.024Z,21.5
2019-04-14T04:28:23.877Z,21.4
2019-04-14T04:29:15.704Z,21.4
2019-04-14T04:30:05.840Z,21.4
2019-04-14T04:30:54.166Z,21.4
2019-04-14T04:31:42.396Z,21.4
2019-04-14T04:32:36.174Z,21.4
2019-04-14T04:33:26.305Z,21.4
2019-04-14T04:34:14.568Z,21.4
2019-04-14T04:35:06.443Z,21.4
2019-04-14T04:35:56.402Z,21.4
2019-04-14T04:36:44.192Z,21.5
2019-04-14T04:37:35.340Z,21.5
2019-04-14T04:38:26.709Z,21.4
2019-04-14T04:39:14.883Z,21.4
2019-04-14T04:40:05.522Z,21.5
2019-04-14T04:40:54.975Z,21.4
2019-04-14T04:41:47.152Z,21.4
2019-04-14T04:42:34.873Z,21.4
2019-04-14T04:43:25.444Z,21.4
2019-04-14T04:44:17.998Z,21.4
2019-04-14T04:45:06.539Z,21.4
2019-04-14T04:45:54.285Z,21.4
2019-04-14T04:46:46.924Z,21.4
2019-04-14T04:47:36.230Z,21.4
2019-04-14T04:48:26.902Z,21.4
2019-04-14T04:49:42.798Z,21.4
2019-04-14T04:50:08.507Z,21.4
2019-04-14T04:50:56.593Z,21.4
2019-04-14T04:51:47.219Z,21.4
2019-04-14T04:52:36.299Z,21.4
2019-04-14T04:53:27.171Z,21.4
2019-04-14T04:54:18.734Z,21.4
2019-04-14T04:55:06.726Z,21.4
2019-04-14T04:55:56.988Z,21.4
2019-04-14T04:56:45.330Z,21.4
2019-04-14T04:57:35.882Z,21.4
2019-04-14T04:58:24.575Z,21.4
2019-04-14T04:59:16.975Z,21.4
2019-04-14T05:00:09.159Z,21.4
2019-04-14T05:01:10.381Z,21.3
2019-04-14T05:01:45.841Z,21.3
2019-04-14T05:02:39.281Z,21.3
2019-04-14T05:03:28.032Z,21.3
2019-04-14T05:04:17.293Z,21.3
2019-04-14T05:05:07.664Z,21.3
2019-04-14T05:05:56.230Z,21.3
2019-04-14T05:06:48.306Z,21.3
2019-04-14T05:07:36.177Z,21.4
2019-04-14T05:08:26.772Z,21.3
2019-04-14T05:09:16.792Z,21.3
2019-04-14T05:10:09.394Z,21.3
2019-04-14T05:10:57.202Z,21.3
2019-04-14T05:11:45.474Z,21.3
2019-04-14T05:12:37.252Z,21.3
2019-04-14T05:13:25.349Z,21.3
2019-04-14T05:14:19.929Z,21.3
2019-04-14T05:15:09.238Z,21.3
2019-04-14T05:15:59.833Z,21.3
2019-04-14T05:16:46.045Z,21.3
2019-04-14T05:17:39.404Z,21.3
2019-04-14T05:18:27.274Z,21.3
2019-04-14T05:19:51.803Z,21.2
2019-04-14T05:20:16.411Z,21.2
2019-04-14T05:21:05.992Z,21.2
2019-04-14T05:21:53.742Z,21.2
2019-04-14T05:22:46.667Z,21.3
2019-04-14T05:23:36.697Z,21.2
2019-04-14T05:24:23.131Z,21.2
2019-04-14T05:25:15.271Z,21.2
2019-04-14T05:26:05.339Z,21.2
2019-04-14T05:26:56.816Z,21.2
2019-04-14T05:27:45.663Z,21.2
2019-04-14T05:28:35.960Z,21.2
2019-04-14T05:29:25.312Z,21.2
2019-04-14T05:30:15.356Z,21.3
2019-04-14T05:31:07.500Z,21.3
2019-04-14T05:31:53.775Z,21.3
2019-04-14T05:32:43.617Z,21.3
2019-04-14T05:33:34.583Z,21.3
2019-04-14T05:34:24.448Z,21.3
2019-04-14T05:35:16.010Z,21.3
2019-04-14T05:36:04.715Z,21.2
2019-04-14T05:36:52.371Z,21.3
2019-04-14T05:37:44.901Z,21.2
2019-04-14T05:38:44.898Z,21.2
2019-04-14T05:39:26.933Z,21.2
2019-04-14T05:40:16.647Z,21.2
2019-04-14T05:41:06.849Z,21.2
2019-04-14T05:42:38.920Z,21.2
2019-04-14T05:43:00.727Z,21.2
2019-04-14T05:44:16.379Z,21.2
2019-04-14T05:44:40.860Z,21.2
2019-04-14T05:45:31.149Z,21.2
2019-04-14T05:46:20.434Z,21.2
2019-04-14T05:47:11.637Z,21.2
2019-04-14T05:48:03.124Z,21.2
2019-04-14T05:48:52.139Z,21.2
2019-04-14T05:50:07.769Z,21.2
2019-04-14T05:50:31.802Z,21.3
2019-04-14T05:51:28.902Z,21.3
2019-04-14T05:52:10.421Z,21.3
2019-04-14T05:53:00.494Z,21.3
2019-04-14T05:53:50.632Z,21.3
2019-04-14T05:54:42.442Z,21.3
2019-04-14T05:55:32.661Z,21.4
2019-04-14T05:56:20.934Z,21.4
2019-04-14T05:57:11.210Z,21.4
2019-04-14T05:58:01.323Z,21.4
2019-04-14T05:58:51.414Z,21.4
2019-04-14T05:59:42.052Z,21.4
2019-04-14T06:00:34.190Z,21.4
2019-04-14T06:01:22.280Z,21.4
2019-04-14T06:02:10.051Z,21.4
2019-04-14T06:03:01.895Z,21.4
2019-04-14T06:05:17.361Z,21.4
2019-04-14T06:05:55.999Z,21.4
2019-04-14T06:06:45.558Z,21.4
2019-04-14T06:07:35.302Z,21.4
2019-04-14T06:08:25.357Z,21.4
2019-04-14T06:09:15.954Z,21.4
2019-04-14T06:10:05.494Z,21.4
2019-04-14T06:10:55.232Z,21.4
2019-04-14T06:11:45.910Z,21.4
2019-04-14T06:12:35.643Z,21.4
2019-04-14T06:13:25.998Z,21.4
2019-04-14T06:14:15.037Z,21.4
2019-04-14T06:15:06.183Z,21.4
2019-04-14T06:15:55.881Z,21.4
2019-04-14T06:16:46.495Z,21.4
2019-04-14T06:17:36.326Z,21.4
2019-04-14T06:18:25.307Z,21.4
2019-04-14T06:19:15.906Z,21.4
2019-04-14T06:20:06.309Z,21.4
2019-04-14T06:20:56.053Z,21.4
2019-04-14T06:21:46.116Z,21.4
2019-04-14T06:22:36.201Z,21.4
2019-04-14T06:23:26.523Z,21.3
2019-04-14T06:24:17.092Z,21.3
2019-04-14T06:25:06.481Z,21.3
2019-04-14T06:25:56.415Z,21.3
2019-04-14T06:26:46.845Z,21.3
2019-04-14T06:27:36.812Z,21.3
2019-04-14T06:28:26.612Z,21.3
2019-04-14T06:29:16.347Z,21.4
2019-04-14T06:30:06.742Z,21.4
2019-04-14T06:30:56.505Z,21.4
2019-04-14T06:31:46.837Z,21.4
2019-04-14T06:32:36.879Z,21.4
2019-04-14T06:33:25.299Z,21.4
2019-04-14T06:34:16.735Z,21.4
2019-04-14T06:35:07.342Z,21.4
2019-04-14T06:35:57.137Z,21.4
2019-04-14T06:36:47.442Z,21.4
2019-04-14T06:37:36.236Z,21.4
2019-04-14T06:38:26.919Z,21.4
2019-04-14T06:39:17.181Z,21.4
2019-04-14T06:40:06.694Z,21.4
2019-04-14T06:40:57.515Z,21.4
2019-04-14T06:41:47.619Z,21.4
2019-04-14T06:42:37.850Z,21.4
2019-04-14T06:43:27.687Z,21.4
2019-04-14T06:44:17.009Z,21.5
2019-04-14T06:45:07.596Z,21.5
2019-04-14T06:45:58.316Z,21.5
2019-04-14T06:46:49.006Z,21.5
2019-04-14T06:47:38.176Z,21.6
2019-04-14T06:48:28.804Z,21.6
2019-04-14T06:49:18.402Z,21.5
2019-04-14T06:50:08.193Z,21.5
2019-04-14T06:50:58.694Z,21.4
2019-04-14T06:51:47.991Z,21.5
2019-04-14T06:52:38.829Z,21.4
2019-04-14T06:53:29.228Z,21.4
2019-04-14T06:54:18.741Z,21.4
2019-04-14T06:55:08.814Z,21.4
2019-04-14T06:56:00.658Z,21.4
2019-04-14T06:56:48.598Z,21.4
2019-04-14T06:57:39.029Z,21.4
2019-04-14T06:58:29.235Z,21.4
2019-04-14T06:59:18.801Z,21.5
2019-04-14T07:00:09.503Z,21.5
2019-04-14T07:00:58.615Z,21.5
2019-04-14T07:01:50.111Z,21.5
2019-04-14T07:02:39.557Z,21.5
2019-04-14T07:05:05.110Z,21.5
2019-04-14T07:05:55.135Z,21.5
2019-04-14T07:06:45.592Z,21.5
2019-04-14T07:07:34.196Z,21.5
2019-04-14T07:08:25.580Z,21.5
2019-04-14T07:09:15.210Z,21.5
2019-04-14T07:10:05.727Z,21.5
2019-04-14T07:10:55.720Z,21.5
2019-04-14T07:11:45.270Z,21.5
2019-04-14T07:12:35.932Z,21.5
2019-04-14T07:13:27.088Z,21.6
2019-04-14T07:14:14.472Z,21.6
2019-04-14T07:15:06.335Z,21.6
2019-04-14T07:15:56.390Z,21.6
2019-04-14T07:16:46.810Z,21.6
2019-04-14T07:17:36.552Z,21.6
2019-04-14T07:18:25.490Z,21.6
2019-04-14T07:19:16.952Z,21.5
2019-04-14T07:20:09.152Z,21.6
2019-04-14T07:20:56.875Z,21.5
2019-04-14T07:21:46.337Z,21.5
2019-04-14T07:22:36.587Z,21.5
2019-04-14T07:23:26.394Z,21.5
2019-04-14T07:24:16.472Z,21.5
2019-04-14T07:25:06.349Z,21.5
2019-04-14T07:25:56.804Z,21.5
2019-04-14T07:26:47.461Z,21.5
2019-04-14T07:27:35.949Z,21.4
2019-04-14T07:28:27.414Z,21.5
2019-04-14T07:29:20.232Z,21.5
2019-04-14T07:30:07.200Z,21.4
2019-04-14T07:30:57.175Z,21.4
2019-04-14T07:31:47.281Z,21.4
2019-04-14T07:32:37.102Z,21.4
2019-04-14T07:33:27.386Z,21.4
2019-04-14T07:34:16.908Z,21.4
2019-04-14T07:35:08.121Z,21.5
2019-04-14T07:35:57.841Z,21.4
2019-04-14T07:36:47.362Z,21.4
2019-04-14T07:37:37.722Z,21.3
2019-04-14T07:38:28.051Z,21
2019-04-14T07:39:18.111Z,20.8
2019-04-14T07:40:07.226Z,20.6
2019-04-14T07:40:58.294Z,20.4
2019-04-14T07:41:47.450Z,20.3
2019-04-14T07:42:38.336Z,20
2019-04-14T07:43:27.854Z,19.8
2019-04-14T07:44:21.558Z,19.6
2019-04-14T07:45:08.029Z,19.4
2019-04-14T07:45:58.981Z,19.4
2019-04-14T07:46:49.070Z,19.4
2019-04-14T07:47:39.051Z,19.4
2019-04-14T07:48:28.805Z,19.4
2019-04-14T07:49:18.303Z,19.3
2019-04-14T07:50:21.520Z,19.3
2019-04-14T07:50:58.972Z,19.3
2019-04-14T07:51:48.606Z,19.3
2019-04-14T07:52:38.441Z,19.1
2019-04-14T07:53:28.427Z,18.9
2019-04-14T07:54:18.733Z,18.6
2019-04-14T07:55:08.773Z,18.3
2019-04-14T07:55:59.140Z,18.1
2019-04-14T07:56:48.124Z,17.9
2019-04-14T07:57:38.917Z,17.8
2019-04-14T07:58:29.540Z,17.6
2019-04-14T07:59:19.310Z,17.6
2019-04-14T08:00:09.124Z,17.4
2019-04-14T08:00:59.217Z,17.4
2019-04-14T08:01:49.482Z,17.4
2019-04-14T08:02:38.740Z,17.4
2019-04-14T08:03:29.382Z,17.3
2019-04-14T08:04:19.717Z,17.2
2019-04-14T08:05:09.279Z,17.1
2019-04-14T08:05:59.545Z,17.1
2019-04-14T08:06:50.226Z,17.3
2019-04-14T08:07:39.117Z,17.6
2019-04-14T08:08:29.977Z,17.8
2019-04-14T08:09:20.574Z,18
2019-04-14T08:10:10.162Z,18.3
2019-04-14T08:10:59.614Z,18.4
2019-04-14T08:11:50.059Z,18.6
2019-04-14T08:12:41.564Z,18.8
2019-04-14T08:13:30.367Z,18.9
2019-04-14T08:14:20.419Z,19.1
2019-04-14T08:15:10.231Z,19.1
2019-04-14T08:15:59.476Z,19.3
2019-04-14T08:16:51.226Z,19.3
2019-04-14T08:17:39.333Z,19.4
2019-04-14T08:18:31.002Z,19.4
2019-04-14T08:19:20.794Z,19.5
2019-04-14T08:20:10.622Z,19.5
2019-04-14T08:21:00.971Z,19.6
2019-04-14T08:21:50.456Z,19.7
2019-04-14T08:22:40.791Z,19.7
2019-04-14T08:23:30.791Z,19.8
2019-04-14T08:24:19.811Z,19.8
2019-04-14T08:25:10.356Z,19.9
2019-04-14T08:26:01.510Z,19.9
2019-04-14T08:26:50.903Z,19.9
2019-04-14T08:27:41.909Z,19.9
2019-04-14T08:28:31.698Z,19.9
2019-04-14T08:29:21.320Z,19.9
2019-04-14T08:30:11.900Z,19.9
2019-04-14T08:31:01.994Z,19.9
2019-04-14T08:31:51.683Z,20
2019-04-14T08:32:42.146Z,20
2019-04-14T08:33:31.858Z,20
2019-04-14T08:34:22.465Z,20
2019-04-14T08:35:11.645Z,20
2019-04-14T08:36:02.543Z,20
2019-04-14T08:36:51.296Z,19.9
2019-04-14T08:37:41.548Z,19.9
2019-04-14T08:38:32.457Z,19.9
2019-04-14T08:39:22.207Z,19.9
2019-04-14T08:40:12.050Z,19.9
2019-04-14T08:41:01.550Z,20
2019-04-14T08:41:51.814Z,20.1
2019-04-14T08:42:42.201Z,20.1
2019-04-14T08:43:32.286Z,20.1
2019-04-14T08:44:22.611Z,20.2
2019-04-14T08:45:12.982Z,20.3
2019-04-14T08:46:02.205Z,20.3
2019-04-14T08:46:52.517Z,20.3
2019-04-14T08:47:42.659Z,20.3
2019-04-14T08:48:32.062Z,20.3
2019-04-14T08:49:23.252Z,20.4
2019-04-14T08:50:13.026Z,20.4
2019-04-14T08:51:03.065Z,20.4
2019-04-14T08:51:53.195Z,20.4
2019-04-14T08:52:43.223Z,20.4
2019-04-14T08:53:32.667Z,20.4
2019-04-14T08:54:23.332Z,20.3
2019-04-14T08:55:13.690Z,20.3
2019-04-14T08:56:03.173Z,20.3
2019-04-14T08:56:52.999Z,20.3
2019-04-14T08:57:43.304Z,20.3
2019-04-14T08:58:32.525Z,20.4
2019-04-14T08:59:22.629Z,20.4
2019-04-14T09:00:13.535Z,20.4
2019-04-14T09:01:03.274Z,20.4
2019-04-14T09:01:53.174Z,20.4
2019-04-14T09:02:42.886Z,20.4
2019-04-14T09:03:33.697Z,20.4
2019-04-14T09:04:23.516Z,20.4
2019-04-14T09:05:13.397Z,20.4
2019-04-14T09:06:03.154Z,20.4
2019-04-14T09:06:54.526Z,20.4
2019-04-14T09:07:44.274Z,20.4
2019-04-14T09:08:34.337Z,20.4
2019-04-14T09:09:23.884Z,20.4
2019-04-14T09:10:14.821Z,20.4
2019-04-14T09:11:04.508Z,20.4
2019-04-14T09:11:54.603Z,20.4
2019-04-14T09:12:44.390Z,20.4
2019-04-14T09:13:34.526Z,20.4
2019-04-14T09:14:25.071Z,20.4
2019-04-14T09:15:14.961Z,20.4
2019-04-14T09:16:03.931Z,20.4
2019-04-14T09:16:54.973Z,20.4
2019-04-14T09:17:44.801Z,20.4
2019-04-14T09:18:34.943Z,20.4
2019-04-14T09:19:25.233Z,20.4
2019-04-14T09:20:14.604Z,20.3
2019-04-14T09:21:03.450Z,20.3
2019-04-14T09:21:55.884Z,20.3
2019-04-14T09:22:45.455Z,20.3
2019-04-14T09:23:35.765Z,20.3
2019-04-14T09:24:24.532Z,20.3
2019-04-14T09:25:15.297Z,20.2
2019-04-14T09:26:05.405Z,20.2
2019-04-14T09:26:55.702Z,20.2
2019-04-14T09:27:45.227Z,20.1
2019-04-14T09:28:36.388Z,20.1
2019-04-14T09:29:25.723Z,20.1
2019-04-14T09:30:16.197Z,20.1
2019-04-14T09:31:05.522Z,20.1
2019-04-14T09:31:56.627Z,20.1
2019-04-14T09:32:46.429Z,20.1
2019-04-14T09:33:36.523Z,20.1
2019-04-14T09:34:26.234Z,20.1
2019-04-14T09:35:15.808Z,20.1
2019-04-14T09:36:06.383Z,20.1
2019-04-14T09:36:55.934Z,20.1
2019-04-14T09:37:46.612Z,20.2
2019-04-14T09:38:36.557Z,20.2
2019-04-14T09:39:26.404Z,20.3
2019-04-14T09:40:16.087Z,20.3
2019-04-14T09:41:06.439Z,20.3
2019-04-14T09:41:56.809Z,20.3
2019-04-14T09:42:46.327Z,20.3
2019-04-14T09:43:37.187Z,20.3
2019-04-14T09:44:26.457Z,20.3
2019-04-14T09:45:16.771Z,20.3
2019-04-14T09:46:07.114Z,20.3
2019-04-14T09:46:56.634Z,20.3
2019-04-14T09:47:47.046Z,20.3
2019-04-14T09:48:36.794Z,20.3
2019-04-14T09:49:26.811Z,20.3
2019-04-14T09:50:16.313Z,20.3
2019-04-14T09:51:11.661Z,20.3
2019-04-14T09:51:57.251Z,20.3
2019-04-14T09:52:47.359Z,20.3
2019-04-14T09:53:37.096Z,20.3
2019-04-14T09:54:27.699Z,20.3
2019-04-14T09:55:18.329Z,20.3
2019-04-14T09:56:08.113Z,20.3
2019-04-14T09:56:57.673Z,20.2
2019-04-14T09:57:47.767Z,20.3
2019-04-14T09:58:38.290Z,20.2
2019-04-14T09:59:28.365Z,20.2
2019-04-14T10:00:17.366Z,20.1
2019-04-14T10:01:11.058Z,20.2
2019-04-14T10:01:57.779Z,20.1
2019-04-14T10:02:48.056Z,20.1
2019-04-14T10:03:38.952Z,20.1
2019-04-14T10:06:05.946Z,20.1
2019-04-14T10:06:55.518Z,20.1
2019-04-14T10:07:45.803Z,20.2
2019-04-14T10:08:33.981Z,20.2
2019-04-14T10:09:25.740Z,20.1
2019-04-14T10:10:16.512Z,20.1
2019-04-14T10:11:05.353Z,20.1
2019-04-14T10:12:02.737Z,20.1
2019-04-14T10:12:46.053Z,20.1
2019-04-14T10:13:35.482Z,20.1
2019-04-14T10:14:25.262Z,20
2019-04-14T10:15:15.357Z,19.9
2019-04-14T10:16:05.415Z,19.9
2019-04-14T10:16:55.995Z,19.9
2019-04-14T10:17:45.292Z,19.9
2019-04-14T10:18:35.577Z,19.9
2019-04-14T10:19:24.790Z,19.9
2019-04-14T10:20:16.507Z,19.9
2019-04-14T10:21:20.064Z,19.9
2019-04-14T10:21:55.855Z,20
2019-04-14T10:22:45.612Z,20
2019-04-14T10:23:39.389Z,20.1
2019-04-14T10:24:26.340Z,20.2
2019-04-14T10:25:16.359Z,20.2
2019-04-14T10:26:06.942Z,20.3
2019-04-14T10:26:55.889Z,20.3
2019-04-14T10:27:46.856Z,20.4
2019-04-14T10:28:36.551Z,20.4
2019-04-14T10:29:26.392Z,20.5
2019-04-14T10:30:17.019Z,20.6
2019-04-14T10:31:06.757Z,20.6
2019-04-14T10:31:57.361Z,20.8
2019-04-14T10:32:46.591Z,20.8
2019-04-14T10:33:37.252Z,20.9
2019-04-14T10:34:26.505Z,20.9
2019-04-14T10:35:17.121Z,21
2019-04-14T10:36:07.226Z,21
2019-04-14T10:39:25.211Z,21.2
2019-04-14T10:40:16.701Z,21.2
2019-04-14T10:41:07.836Z,21.2
2019-04-14T10:41:57.334Z,21.2
2019-04-14T10:42:48.167Z,21.2
2019-04-14T10:43:37.969Z,21.3
2019-04-14T10:44:27.219Z,21.3
2019-04-14T10:45:20.566Z,21.3
2019-04-14T10:46:08.472Z,21.3
2019-04-14T10:46:57.932Z,21.3
2019-04-14T10:47:47.699Z,21.3
2019-04-14T10:48:37.829Z,21.3
2019-04-14T10:49:27.879Z,21.3
2019-04-14T10:50:32.090Z,21.3
2019-04-14T10:51:08.797Z,21.3
2019-04-14T10:51:58.590Z,21.3
2019-04-14T10:52:47.812Z,21.3
2019-04-14T10:53:38.776Z,21.3
2019-04-14T10:54:28.925Z,21.3
2019-04-14T10:55:18.591Z,21.3
2019-04-14T10:56:09.163Z,21.3
2019-04-14T10:57:02.109Z,21.3
2019-04-14T10:57:49.071Z,21.3
2019-04-14T10:58:39.344Z,21.3
2019-04-14T10:59:29.413Z,21.3
2019-04-14T11:00:18.681Z,21.3
2019-04-14T11:01:09.021Z,21.3
2019-04-14T11:01:59.650Z,21.2
2019-04-14T11:02:48.580Z,21.3
2019-04-14T11:03:39.445Z,21.3
2019-04-14T11:04:29.187Z,21.3
2019-04-14T11:05:19.824Z,21.3
2019-04-14T11:06:08.779Z,21.3
2019-04-14T11:06:59.660Z,21.3
2019-04-14T11:07:49.795Z,21.3
2019-04-14T11:08:39.505Z,21.2
2019-04-14T11:09:29.005Z,21.2
2019-04-14T11:10:19.099Z,21.2
2019-04-14T11:11:10.512Z,21.2
2019-04-14T11:13:39.881Z,21.2
2019-04-14T11:14:29.158Z,21.2
2019-04-14T11:15:21.376Z,21.2
2019-04-14T11:16:10.084Z,21.2
2019-04-14T11:17:00.076Z,21.2
2019-04-14T11:17:50.736Z,21.2
2019-04-14T11:18:40.264Z,21.2
2019-04-14T11:19:30.033Z,21.2
2019-04-14T11:20:20.078Z,21.2
2019-04-14T11:21:11.012Z,21.2
2019-04-14T11:22:00.458Z,21.2
2019-04-14T11:23:04.071Z,21.2
2019-04-14T11:23:40.326Z,21.2
2019-04-14T11:24:30.506Z,21.2
2019-04-14T11:25:20.708Z,21.3
2019-04-14T11:26:10.324Z,21.3
2019-04-14T11:27:01.418Z,21.3
2019-04-14T11:27:51.753Z,21.3
2019-04-14T11:28:41.271Z,21.1
2019-04-14T11:29:31.871Z,20.8
2019-04-14T11:30:21.618Z,20.6
2019-04-14T11:31:11.438Z,20.5
2019-04-14T11:32:01.546Z,20.4
2019-04-14T11:32:51.045Z,20.3
2019-04-14T11:33:40.578Z,20.2
2019-04-14T11:34:31.701Z,20.1
2019-04-14T11:35:23.645Z,20.1
2019-04-14T11:36:12.104Z,20.1
2019-04-14T11:37:01.659Z,20
2019-04-14T11:37:51.763Z,20
2019-04-14T11:38:41.808Z,20
2019-04-14T11:39:32.152Z,20
2019-04-14T11:40:21.818Z,20
2019-04-14T11:41:12.780Z,20
2019-04-14T11:42:02.885Z,20
2019-04-14T11:42:59.542Z,20
2019-04-14T11:43:42.498Z,20
2019-04-14T11:44:32.254Z,20
2019-04-14T11:45:22.742Z,20
2019-04-14T11:46:13.165Z,20
2019-04-14T11:47:02.109Z,20
2019-04-14T11:47:52.972Z,20
2019-04-14T11:48:42.702Z,20
2019-04-14T11:49:32.834Z,20
2019-04-14T11:50:22.371Z,20
2019-04-14T11:51:11.853Z,20
2019-04-14T11:52:03.007Z,20.1
2019-04-14T11:52:52.213Z,20.1
2019-04-14T11:53:43.632Z,20
2019-04-14T11:54:33.427Z,20.1
2019-04-14T11:55:22.154Z,20
2019-04-14T11:56:13.651Z,20
2019-04-14T11:57:03.101Z,20.1
2019-04-14T11:57:53.316Z,20
2019-04-14T11:58:43.786Z,20.1
2019-04-14T11:59:32.696Z,20.1
2019-04-14T12:00:24.024Z,20
2019-04-14T12:01:13.074Z,20
2019-04-14T12:02:03.825Z,20
2019-04-14T12:02:53.830Z,20
2019-04-14T12:03:43.861Z,20
2019-04-14T12:06:34.706Z,19.9
2019-04-14T12:07:11.341Z,20
2019-04-14T12:08:00.273Z,20
2019-04-14T12:08:34.930Z,20.1
2019-04-14T12:09:25.326Z,20.1
2019-04-14T12:10:15.406Z,20.1
2019-04-14T12:11:05.961Z,20.1
2019-04-14T12:11:56.278Z,20.1
2019-04-14T12:12:45.386Z,20.1
2019-04-14T12:13:34.631Z,20.1
2019-04-14T12:14:41.534Z,20.2
2019-04-14T12:15:23.370Z,20.2
2019-04-14T12:16:05.908Z,20.2
2019-04-14T12:16:56.538Z,20.2
2019-04-14T12:17:46.122Z,20.2
2019-04-14T12:18:51.275Z,20.3
2019-04-14T12:19:41.284Z,20.3
2019-04-14T12:20:15.813Z,20.3
2019-04-14T12:21:06.363Z,20.4
2019-04-14T12:22:09.884Z,20.4
2019-04-14T12:22:45.583Z,20.4
2019-04-14T12:23:36.427Z,20.4
2019-04-14T12:24:26.435Z,20.4
2019-04-14T12:25:17.375Z,20.4
2019-04-14T12:26:27.199Z,20.4
2019-04-14T12:26:56.829Z,20.4
2019-04-14T12:27:53.518Z,20.4
2019-04-14T12:28:44.722Z,20.4
2019-04-14T12:29:50.054Z,20.4
2019-04-14T12:30:26.800Z,20.4
2019-04-14T12:31:15.719Z,20.4
2019-04-14T12:32:18.387Z,20.4
2019-04-14T12:32:46.799Z,20.4
2019-04-14T12:33:37.815Z,20.4
2019-04-14T12:34:40.925Z,20.4
2019-04-14T12:35:32.305Z,20.4
2019-04-14T12:36:08.055Z,20.4
2019-04-14T12:36:58.188Z,20.4
2019-04-14T12:37:47.923Z,20.4
2019-04-14T12:38:37.564Z,20.4
2019-04-14T12:39:26.992Z,20.4
2019-04-14T12:40:16.582Z,20.4
2019-04-14T12:41:58.266Z,20.4
2019-04-14T12:42:47.280Z,20.4
2019-04-14T12:43:37.850Z,20.4
2019-04-14T12:44:27.678Z,20.4
2019-04-14T12:45:19.261Z,20.4
2019-04-14T12:46:11.203Z,20.3
2019-04-14T12:46:58.070Z,20.3
2019-04-14T12:47:48.351Z,20.2